createdAt,value
2019-04-27T00:04:00.000Z,10.8
2019-04-27T00:09:00.000Z,10.8
2019-04-27T00:14:00.000Z,10.8
2019-04-27T00:19:00.000Z,10.8
2019-04-27T00:24:00.000Z,10.8
2019-04-27T00:29:00.000Z,10.9
2019-04-27T00:34:00.000Z,10.9
2019-04-27T00:39:00.000Z,10.9
2019-04-27T00:44:00.000Z,10.9
2019-04-27T00:49:00.000Z,10.9
2019-04-27T00:54:00.000Z,10.9
2019-04-27T00:59:00.000Z,10.9
2019-04-27T01:04:00.000Z,10.9
2019-04-27T01:09:00.000Z,11.0
2019-04-27T01:14:00.000Z,11.0
2019-04-27T01:19:00.000Z,11.1
2019-04-27T01:24:00.000Z,11.1
2019-04-27T01:29:00.000Z,11.2
2019-04-27T01:34:00.000Z,11.2
2019-04-27T01:39:00.000Z,11.2
2019-04-27T01:44:00.000Z,11.1
2019-04-27T01:49:00.000Z,11.1
2019-04-27T01:54:00.000Z,11.0
2019-04-27T01:59:00.000Z,11.0
2019-04-27T02:04:00.000Z,11.0
2019-04-27T02:09:00.000Z,11.0
2019-04-27T02:14:00.000Z,11.0
2019-04-27T02:19:00.000Z,11.0
2019-04-27T02:24:00.000Z,11.0
2019-04-27T02:29:00.000Z,11.0
2019-04-27T02:34:00.000Z,10.9
2019-04-27T02:39:00.000Z,10.9
2019-04-27T02:44:00.000Z,10.8
2019-04-27T02:49:00.000Z,10.8
2019-04-27T02:54:00.000Z,10.8
2019-04-27T02:59:00.000Z,10.8
2019-04-27T03:04:00.000Z,10.8
2019-04-27T03:09:00.000Z,10.8
2019-04-27T03:14:00.000Z,10.8
2019-04-27T03:19:00.000Z,10.8
2019-04-27T03:24:00.000Z,10.8
2019-04-27T03:29:00.000Z,10.8
2019-04-27T03:35:00.000Z,10.8
2019-04-27T03:40:00.000Z,10.9
2019-04-27T03:45:00.000Z,10.9
2019-04-27T03:50:00.000Z,10.9
2019-04-27T03:55:00.000Z,10.9
2019-04-27T04:00:00.000Z,10.9
2019-04-27T04:05:00.000Z,10.9
2019-04-27T04:10:00.000Z,10.9
2019-04-27T04:15:00.000Z,10.9
2019-04-27T04:20:00.000Z,10.8
2019-04-27T04:25:00.000Z,10.8
2019-04-27T04:30:00.000Z,10.8
2019-04-27T04:35:00.000Z,10.9
2019-04-27T04:40:00.000Z,10.9
2019-04-27T04:45:00.000Z,10.9
2019-04-27T04:50:00.000Z,10.9
2019-04-27T04:55:00.000Z,10.9
2019-04-27T05:00:00.000Z,10.9
2019-04-27T05:05:00.000Z,10.9
2019-04-27T05:10:00.000Z,10.9
2019-04-27T05:15:00.000Z,10.9
2019-04-27T05:20:00.000Z,10.9
2019-04-27T05:25:00.000Z,11.0
2019-04-27T05:30:00.000Z,11.1
2019-04-27T05:35:00.000Z,11.2
2019-04-27T05:40:00.000Z,11.3
2019-04-27T05:45:00.000Z,11.3
2019-04-27T05:50:00.000Z,11.4
2019-04-27T05:55:00.000Z,11.6
2019-04-27T06:00:00.000Z,11.8
2019-04-27T06:05:00.000Z,11.9
2019-04-27T06:10:00.000Z,12.1
2019-04-27T06:15:00.000Z,12.1
2019-04-27T06:20:00.000Z,12.2
2019-04-27T06:25:00.000Z,12.3
2019-04-27T06:30:00.000Z,12.3
2019-04-27T06:35:00.000Z,12.3
2019-04-27T06:41:00.000Z,12.4
2019-04-27T06:46:00.000Z,12.4
2019-04-27T06:51:00.000Z,12.5
2019-04-27T06:56:00.000Z,12.6
2019-04-27T07:01:00.000Z,12.6
2019-04-27T07:06:00.000Z,12.6
2019-04-27T07:11:00.000Z,12.8
2019-04-27T07:16:00.000Z,12.8
2019-04-27T07:21:00.000Z,13.0
2019-04-27T07:26:00.000Z,13.1
2019-04-27T07:31:00.000Z,13.5
2019-04-27T07:36:00.000Z,13.6
2019-04-27T07:41:00.000Z,13.6
2019-04-27T07:46:00.000Z,14.1
2019-04-27T07:51:00.000Z,14.6
2019-04-27T07:56:00.000Z,15.1
2019-04-27T08:01:00.000Z,15.8
2019-04-27T08:06:00.000Z,16.2
2019-04-27T08:11:00.000Z,16.7
2019-04-27T08:16:00.000Z,17.1
2019-04-27T08:21:00.000Z,17.4
2019-04-27T08:26:00.000Z,17.6
2019-04-27T08:31:00.000Z,17.2
2019-04-27T08:36:00.000Z,17.0
2019-04-27T08:41:00.000Z,16.6
2019-04-27T08:46:00.000Z,16.8
2019-04-27T08:51:00.000Z,16.5
2019-04-27T08:57:00.000Z,17.0
2019-04-27T09:02:00.000Z,17.1
2019-04-27T09:07:00.000Z,17.7
2019-04-27T09:12:00.000Z,18.1
2019-04-27T09:17:00.000Z,17.9
2019-04-27T09:22:00.000Z,18.3
2019-04-27T09:27:00.000Z,18.5
2019-04-27T09:32:00.000Z,18.6
2019-04-27T09:37:00.000Z,18.4
2019-04-27T09:42:00.000Z,18.0
2019-04-27T09:47:00.000Z,17.9
2019-04-27T09:52:00.000Z,18.0
2019-04-27T09:57:00.000Z,17.8
2019-04-27T10:02:00.000Z,17.4
2019-04-27T10:07:00.000Z,17.4
2019-04-27T10:12:00.000Z,17.8
2019-04-27T10:17:00.000Z,17.6
2019-04-27T10:22:00.000Z,17.3
2019-04-27T10:27:00.000Z,17.0
2019-04-27T10:32:00.000Z,16.8
2019-04-27T10:37:00.000Z,16.8
2019-04-27T10:42:00.000Z,16.9
2019-04-27T10:47:00.000Z,17.1
2019-04-27T10:52:00.000Z,17.4
2019-04-27T10:57:00.000Z,17.8
2019-04-27T11:02:00.000Z,18.3
2019-04-27T11:07:00.000Z,18.1
2019-04-27T11:12:00.000Z,17.8
2019-04-27T11:18:00.000Z,17.8
2019-04-27T11:23:00.000Z,17.7
2019-04-27T11:28:00.000Z,17.8
2019-04-27T11:33:00.000Z,17.7
2019-04-27T11:38:00.000Z,17.7
2019-04-27T11:43:00.000Z,17.7
2019-04-27T11:48:00.000Z,17.8
2019-04-27T11:53:00.000Z,17.7
2019-04-27T11:58:00.000Z,17.9
2019-04-27T12:03:00.000Z,17.8
2019-04-27T12:08:00.000Z,17.6
2019-04-27T12:13:00.000Z,17.5
2019-04-27T12:18:00.000Z,17.3
2019-04-27T12:23:00.000Z,17.4
2019-04-27T12:28:00.000Z,17.4
2019-04-27T12:33:00.000Z,17.6
2019-04-27T12:38:00.000Z,17.6
2019-04-27T12:43:00.000Z,17.5
2019-04-27T12:48:00.000Z,17.6
2019-04-27T12:53:00.000Z,17.6
2019-04-27T12:58:00.000Z,17.5
2019-04-27T13:03:00.000Z,17.2
2019-04-27T13:08:00.000Z,17.3
2019-04-27T13:14:00.000Z,17.2
2019-04-27T13:19:00.000Z,16.8
2019-04-27T13:24:00.000Z,16.8
2019-04-27T13:29:00.000Z,16.8
2019-04-27T13:34:00.000Z,16.7
2019-04-27T13:39:00.000Z,16.5
2019-04-27T13:44:00.000Z,16.5
2019-04-27T13:49:00.000Z,16.5
2019-04-27T13:54:00.000Z,16.3
2019-04-27T13:59:00.000Z,16.4
2019-04-27T14:04:00.000Z,16.5
2019-04-27T14:09:00.000Z,16.4
2019-04-27T14:14:00.000Z,16.3
2019-04-27T14:19:00.000Z,16.2
2019-04-27T14:24:00.000Z,16.1
2019-04-27T14:29:00.000Z,15.9
2019-04-27T14:34:00.000Z,15.8
2019-04-27T14:39:00.000Z,15.6
2019-04-27T14:44:00.000Z,15.6
2019-04-27T14:49:00.000Z,15.7
2019-04-27T14:54:00.000Z,15.8
2019-04-27T14:59:00.000Z,15.8
2019-04-27T15:04:00.000Z,16.0
2019-04-27T15:09:00.000Z,16.1
2019-04-27T15:14:00.000Z,16.1
2019-04-27T15:20:00.000Z,16.0
2019-04-27T15:25:00.000Z,15.9
2019-04-27T15:30:00.000Z,16.1
2019-04-27T15:35:00.000Z,16.7
2019-04-27T15:40:00.000Z,16.6
2019-04-27T15:45:00.000Z,16.5
2019-04-27T15:50:00.000Z,16.3
2019-04-27T15:55:00.000Z,16.2
2019-04-27T16:00:00.000Z,16.2
2019-04-27T16:05:00.000Z,16.2
2019-04-27T16:10:00.000Z,16.1
2019-04-27T16:15:00.000Z,16.1
2019-04-27T16:20:00.000Z,16.0
2019-04-27T16:25:00.000Z,15.9
2019-04-27T16:30:00.000Z,15.8
2019-04-27T16:35:00.000Z,15.7
2019-04-27T16:41:00.000Z,15.5
2019-04-27T16:46:00.000Z,15.3
2019-04-27T16:51:00.000Z,15.2
2019-04-27T16:56:00.000Z,15.2
2019-04-27T17:01:00.000Z,15.2
2019-04-27T17:06:00.000Z,15.2
2019-04-27T17:11:00.000Z,15.1
2019-04-27T17:16:00.000Z,15.0
2019-04-27T17:21:00.000Z,14.9
2019-04-27T17:26:00.000Z,14.8
2019-04-27T17:31:00.000Z,14.7
2019-04-27T17:36:00.000Z,14.6
2019-04-27T17:41:00.000Z,14.6
2019-04-27T17:46:00.000Z,14.5
2019-04-27T17:51:00.000Z,14.4
2019-04-27T17:56:00.000Z,14.4
2019-04-27T18:01:00.000Z,14.3
2019-04-27T18:07:00.000Z,14.3
2019-04-27T18:12:00.000Z,14.2
2019-04-27T18:17:00.000Z,14.2
2019-04-27T18:22:00.000Z,14.2
2019-04-27T18:27:00.000Z,14.1
2019-04-27T18:32:00.000Z,14.1
2019-04-27T18:37:00.000Z,14.0
2019-04-27T18:42:00.000Z,14.0
2019-04-27T18:47:00.000Z,14.0
2019-04-27T18:52:00.000Z,13.9
2019-04-27T18:57:00.000Z,13.9
2019-04-27T19:02:00.000Z,13.9
2019-04-27T19:07:00.000Z,13.8
2019-04-27T19:12:00.000Z,13.8
2019-04-27T19:17:00.000Z,13.7
2019-04-27T19:22:00.000Z,13.7
2019-04-27T19:28:00.000Z,13.6
2019-04-27T19:33:00.000Z,13.6
2019-04-27T19:38:00.000Z,13.6
2019-04-27T19:43:00.000Z,13.5
2019-04-27T19:48:00.000Z,13.5
2019-04-27T19:53:00.000Z,13.5
2019-04-27T19:58:00.000Z,13.4
2019-04-27T20:03:00.000Z,13.4
2019-04-27T20:08:00.000Z,13.3
2019-04-27T20:13:00.000Z,13.3
2019-04-27T20:18:00.000Z,13.2
2019-04-27T20:23:00.000Z,13.2
2019-04-27T20:28:00.000Z,13.1
2019-04-27T20:33:00.000Z,13.0
2019-04-27T20:38:00.000Z,13.0
2019-04-27T20:43:00.000Z,12.9
2019-04-27T20:48:00.000Z,12.9
2019-04-27T20:53:00.000Z,12.8
2019-04-27T20:58:00.000Z,12.7
2019-04-27T21:03:00.000Z,12.7
2019-04-27T21:08:00.000Z,12.6
2019-04-27T21:13:00.000Z,12.6
2019-04-27T21:18:00.000Z,12.6
2019-04-27T21:23:00.000Z,12.5
2019-04-27T21:28:00.000Z,12.5
2019-04-27T21:33:00.000Z,12.5
2019-04-27T21:38:00.000Z,12.4
2019-04-27T21:43:00.000Z,12.4
2019-04-27T21:48:00.000Z,12.4
2019-04-27T21:53:00.000Z,12.4
2019-04-27T21:58:00.000Z,12.3
2019-04-27T22:03:00.000Z,12.3
2019-04-27T22:08:00.000Z,12.2
2019-04-27T22:13:00.000Z,12.2
2019-04-27T22:18:00.000Z,12.2
2019-04-27T22:23:00.000Z,12.1
2019-04-27T22:28:00.000Z,12.1
2019-04-27T22:33:00.000Z,12.0
2019-04-27T22:38:00.000Z,12.0
2019-04-27T22:43:00.000Z,12.0
2019-04-27T22:48:00.000Z,11.9
2019-04-27T22:53:00.000Z,11.9
2019-04-27T22:58:00.000Z,11.9
2019-04-27T23:04:00.000Z,11.9
2019-04-27T23:09:00.000Z,11.9
2019-04-27T23:14:00.000Z,11.9
2019-04-27T23:19:00.000Z,11.8
2019-04-27T23:24:00.000Z,11.8
2019-04-27T23:29:00.000Z,11.8
2019-04-27T23:34:00.000Z,11.8
2019-04-27T23:39:00.000Z,11.8
2019-04-27T23:44:00.000Z,11.8
2019-04-27T23:49:00.000Z,11.8
2019-04-27T23:54:00.000Z,11.7
2019-04-27T23:59:00.000Z,11.7
